Stoney Point, Missouri
Current Conditions -  °F | °C
As of 9:35 PM on Saturday 22 Nov 2014 (Local Time) from KFAM Reporting Station
Clear Clear  
Wind Chill: 11°   Ceiling: Unl
Heat Index: 11°   Visibility: 10mi
Dew Point:   Wind: 14mph
Humidity: 82%   Direction: 130°SE
Pressure: 29.95"   Gusts: 18mph
Location:  37.9132°N, 90.7°W
Report Text: KFAM 230335Z AUTO 13012G16KT 10SM CLR 11/08 A2995 RMK AO1
Loading
Personal Weather Stations






























Interactive Weather Map New forecast layout! Learn more

10-Day Weather Forecast

Advertisements
Track Severe Weather on mobile